Time,TemperatureF,DewpointF,PressureIn,WindDirection,WindDirectionDegrees,WindSpeedMPH,WindSpeedGustMPH,Humidity,HourlyPrecipIn,Conditions,Clouds,dailyrainin,SoftwareType,DateUTC
2016-12-03 00:02:00,19.8,14.9,30.30,ENE,66,0.0,0.0,81,0.00,,,0.00,meteohub,2016-12-03 07:02:00,
2016-12-03 00:07:00,19.8,14.9,30.30,ENE,66,0.0,0.0,81,0.00,,,0.00,meteohub,2016-12-03 07:07:00,
2016-12-03 00:12:00,19.8,14.9,30.30,ENE,66,0.0,0.0,81,0.00,,,0.00,meteohub,2016-12-03 07:12:00,
2016-12-03 00:17:00,19.6,14.7,30.30,ENE,66,0.0,0.0,81,0.00,,,0.00,meteohub,2016-12-03 07:17:00,
2016-12-03 00:22:00,19.6,14.4,30.30,ENE,66,0.0,0.0,80,0.00,,,0.00,meteohub,2016-12-03 07:22:00,
2016-12-03 00:27:00,19.6,14.4,30.30,ENE,66,0.0,0.0,80,0.00,,,0.00,meteohub,2016-12-03 07:27:00,
2016-12-03 00:32:00,19.6,14.2,30.30,ENE,66,0.0,0.0,79,0.00,,,0.00,meteohub,2016-12-03 07:32:00,
2016-12-03 00:37:00,19.6,14.2,30.30,ENE,66,0.0,0.0,79,0.00,,,0.00,meteohub,2016-12-03 07:37:00,
2016-12-03 00:42:00,19.6,14.2,30.29,ENE,66,0.0,0.0,79,0.00,,,0.00,meteohub,2016-12-03 07:42:00,
2016-12-03 00:47:00,19.6,14.2,30.29,ENE,66,0.0,0.0,79,0.00,,,0.00,meteohub,2016-12-03 07:47:00,
2016-12-03 00:52:00,19.4,14.0,30.29,ENE,66,0.0,0.0,79,0.00,,,0.00,meteohub,2016-12-03 07:52:00,
2016-12-03 00:57:00,19.2,13.8,30.29,ENE,66,0.0,1.0,79,0.00,,,0.00,meteohub,2016-12-03 07:57:00,
2016-12-03 01:02:00,19.2,13.8,30.29,ENE,66,0.0,1.0,79,0.00,,,0.00,meteohub,2016-12-03 08:02:00,
2016-12-03 01:07:00,19.0,13.6,30.28,ENE,66,0.0,1.0,79,0.00,,,0.00,meteohub,2016-12-03 08:07:00,
2016-12-03 01:12:00,19.0,13.6,30.28,ENE,66,0.0,1.0,79,0.00,,,0.00,meteohub,2016-12-03 08:12:00,
2016-12-03 01:17:00,19.0,13.6,30.28,ENE,66,0.0,1.0,79,0.00,,,0.00,meteohub,2016-12-03 08:17:00,
2016-12-03 01:22:00,18.9,13.5,30.28,ENE,66,0.0,1.0,79,0.00,,,0.00,meteohub,2016-12-03 08:22:00,
2016-12-03 01:27:00,18.9,13.5,30.28,ENE,66,0.0,1.0,79,0.00,,,0.00,meteohub,2016-12-03 08:27:00,
2016-12-03 01:32:00,18.7,13.3,30.28,ENE,66,0.0,0.0,79,0.00,,,0.00,meteohub,2016-12-03 08:32:00,
2016-12-03 01:37:00,18.5,13.1,30.27,ENE,66,0.0,0.0,79,0.00,,,0.00,meteohub,2016-12-03 08:37:00,
2016-12-03 01:42:00,18.3,12.9,30.27,ENE,66,0.0,0.0,79,0.00,,,0.00,meteohub,2016-12-03 08:42:00,
2016-12-03 01:47:00,18.3,12.9,30.28,ENE,66,0.0,0.0,79,0.00,,,0.00,meteohub,2016-12-03 08:47:00,
2016-12-03 01:52:00,18.1,12.7,30.28,ENE,66,0.0,0.0,79,0.00,,,0.00,meteohub,2016-12-03 08:52:00,
2016-12-03 01:57:00,18.1,12.7,30.27,ENE,66,0.0,0.0,79,0.00,,,0.00,meteohub,2016-12-03 08:57:00,
2016-12-03 02:02:00,18.1,12.7,30.27,ENE,66,0.0,0.0,79,0.00,,,0.00,meteohub,2016-12-03 09:02:00,
2016-12-03 02:07:00,18.0,12.6,30.27,ENE,66,0.0,0.0,79,0.00,,,0.00,meteohub,2016-12-03 09:07:00,
2016-12-03 02:12:00,18.0,12.6,30.27,ENE,66,0.0,1.0,79,0.00,,,0.00,meteohub,2016-12-03 09:12:00,
2016-12-03 02:17:00,18.0,12.6,30.27,ENE,66,0.0,1.0,79,0.00,,,0.00,meteohub,2016-12-03 09:17:00,
2016-12-03 02:22:00,18.0,12.6,30.27,ENE,66,0.0,0.0,79,0.00,,,0.00,meteohub,2016-12-03 09:22:00,
2016-12-03 02:27:00,18.0,12.6,30.27,ENE,66,0.0,0.0,79,0.00,,,0.00,meteohub,2016-12-03 09:27:00,
2016-12-03 02:32:00,18.0,12.6,30.26,ENE,66,0.0,0.0,79,0.00,,,0.00,meteohub,2016-12-03 09:32:00,
2016-12-03 02:37:00,18.0,12.6,30.26,ENE,66,0.0,0.0,79,0.00,,,0.00,meteohub,2016-12-03 09:37:00,
2016-12-03 02:42:00,17.8,12.0,30.26,ENE,66,0.0,0.0,78,0.00,,,0.00,meteohub,2016-12-03 09:42:00,
2016-12-03 02:47:00,17.8,12.4,30.25,ENE,66,0.0,0.0,79,0.00,,,0.00,meteohub,2016-12-03 09:47:00,
2016-12-03 02:52:00,17.8,12.4,30.26,ENE,66,0.0,1.0,79,0.00,,,0.00,meteohub,2016-12-03 09:52:00,
2016-12-03 02:57:00,17.8,12.0,30.25,ENE,66,0.0,1.0,78,0.00,,,0.00,meteohub,2016-12-03 09:57:00,
2016-12-03 03:02:00,17.8,12.4,30.25,ENE,66,0.0,1.0,79,0.00,,,0.00,meteohub,2016-12-03 10:02:00,
2016-12-03 03:07:00,17.6,12.2,30.26,ENE,66,0.0,1.0,79,0.00,,,0.00,meteohub,2016-12-03 10:07:00,
2016-12-03 03:12:00,17.6,12.2,30.26,ENE,66,0.0,1.0,79,0.00,,,0.00,meteohub,2016-12-03 10:12:00,
2016-12-03 03:17:00,17.4,12.0,30.26,ENE,66,0.0,0.0,79,0.00,,,0.00,meteohub,2016-12-03 10:17:00,
2016-12-03 03:22:00,17.4,12.0,30.26,ENE,66,0.0,0.0,79,0.00,,,0.00,meteohub,2016-12-03 10:22:00,
2016-12-03 03:27:00,17.4,12.0,30.25,ENE,66,0.0,0.0,79,0.00,,,0.00,meteohub,2016-12-03 10:27:00,
2016-12-03 03:32:00,17.4,12.0,30.25,ENE,66,0.0,0.0,79,0.00,,,0.00,meteohub,2016-12-03 10:32:00,
2016-12-03 03:37:00,17.4,12.0,30.25,ENE,66,0.0,1.0,79,0.00,,,0.00,meteohub,2016-12-03 10:37:00,
2016-12-03 03:42:00,17.4,12.0,30.25,ENE,66,0.0,1.0,79,0.00,,,0.00,meteohub,2016-12-03 10:42:00,
2016-12-03 03:47:00,17.4,12.0,30.25,ENE,66,0.0,1.0,79,0.00,,,0.00,meteohub,2016-12-03 10:47:00,
2016-12-03 03:52:00,17.4,12.4,30.25,ENE,66,0.0,1.0,80,0.00,,,0.00,meteohub,2016-12-03 10:52:00,
2016-12-03 03:57:00,17.4,12.0,30.24,ENE,66,0.0,1.0,79,0.00,,,0.00,meteohub,2016-12-03 10:57:00,
2016-12-03 04:02:00,17.4,12.4,30.24,ENE,66,0.0,1.0,80,0.00,,,0.00,meteohub,2016-12-03 11:02:00,
2016-12-03 04:07:00,17.4,12.0,30.24,ENE,66,0.0,1.0,79,0.00,,,0.00,meteohub,2016-12-03 11:07:00,
2016-12-03 04:12:00,17.4,12.0,30.24,ENE,66,0.0,1.0,79,0.00,,,0.00,meteohub,2016-12-03 11:12:00,
2016-12-03 04:17:00,17.2,11.8,30.24,ENE,66,0.0,0.0,79,0.00,,,0.00,meteohub,2016-12-03 11:17:00,
2016-12-03 04:22:00,17.2,11.8,30.23,ENE,66,0.0,1.0,79,0.00,,,0.00,meteohub,2016-12-03 11:22:00,
2016-12-03 04:27:00,17.1,11.7,30.23,ENE,66,0.0,1.0,79,0.00,,,0.00,meteohub,2016-12-03 11:27:00,
2016-12-03 04:32:00,17.1,12.0,30.23,ENE,66,0.0,1.0,80,0.00,,,0.00,meteohub,2016-12-03 11:32:00,
2016-12-03 04:37:00,17.1,12.0,30.23,ENE,66,0.0,1.0,80,0.00,,,0.00,meteohub,2016-12-03 11:37:00,
2016-12-03 04:42:00,17.1,12.0,30.23,ENE,66,0.0,1.0,80,0.00,,,0.00,meteohub,2016-12-03 11:42:00,
2016-12-03 04:47:00,17.1,12.2,30.23,ENE,66,0.0,1.0,81,0.00,,,0.00,meteohub,2016-12-03 11:47:00,
2016-12-03 04:52:00,17.1,12.2,30.23,ENE,66,0.0,1.0,81,0.00,,,0.00,meteohub,2016-12-03 11:52:00,
2016-12-03 04:57:00,17.1,12.2,30.23,ENE,66,0.0,1.0,81,0.00,,,0.00,meteohub,2016-12-03 11:57:00,
2016-12-03 05:02:00,17.1,12.0,30.23,ENE,66,0.0,1.0,80,0.00,,,0.00,meteohub,2016-12-03 12:02:00,
2016-12-03 05:12:00,16.9,11.8,30.22,ENE,66,0.0,1.0,80,0.00,,,0.00,meteohub,2016-12-03 12:12:00,
2016-12-03 05:17:00,16.9,11.8,30.23,ENE,66,0.0,1.0,80,0.00,,,0.00,meteohub,2016-12-03 12:17:00,
2016-12-03 05:22:00,16.9,11.8,30.22,ENE,66,0.0,1.0,80,0.00,,,0.00,meteohub,2016-12-03 12:22:00,
2016-12-03 05:27:00,16.9,11.8,30.22,ENE,66,0.0,1.0,80,0.00,,,0.00,meteohub,2016-12-03 12:27:00,
2016-12-03 05:32:00,16.9,12.0,30.22,ENE,66,0.0,1.0,81,0.00,,,0.00,meteohub,2016-12-03 12:32:00,
2016-12-03 05:37:00,16.9,12.0,30.22,ENE,66,0.0,1.0,81,0.00,,,0.00,meteohub,2016-12-03 12:37:00,
2016-12-03 05:42:00,17.1,12.2,30.22,ENE,66,0.0,1.0,81,0.00,,,0.00,meteohub,2016-12-03 12:42:00,
2016-12-03 05:47:00,16.9,11.8,30.22,ENE,66,0.0,1.0,80,0.00,,,0.00,meteohub,2016-12-03 12:47:00,
2016-12-03 05:52:00,16.9,11.8,30.22,ENE,66,0.0,0.0,80,0.00,,,0.00,meteohub,2016-12-03 12:52:00,
2016-12-03 05:57:00,16.9,11.5,30.22,ENE,66,0.0,0.0,79,0.00,,,0.00,meteohub,2016-12-03 12:57:00,
2016-12-03 06:02:00,16.9,11.8,30.22,ENE,66,0.0,0.0,80,0.00,,,0.00,meteohub,2016-12-03 13:02:00,
2016-12-03 06:07:00,16.7,11.7,30.22,ENE,66,0.0,1.0,80,0.00,,,0.00,meteohub,2016-12-03 13:07:00,
2016-12-03 06:12:00,16.7,11.7,30.22,ENE,66,0.0,1.0,80,0.00,,,0.00,meteohub,2016-12-03 13:12:00,
2016-12-03 06:17:00,16.5,11.5,30.22,ENE,66,0.0,1.0,80,0.00,,,0.00,meteohub,2016-12-03 13:17:00,
2016-12-03 06:22:00,16.5,11.5,30.23,ENE,66,0.0,0.0,80,0.00,,,0.00,meteohub,2016-12-03 13:22:00,
2016-12-03 06:27:00,16.3,11.3,30.22,ENE,66,0.0,1.0,80,0.00,,,0.00,meteohub,2016-12-03 13:27:00,
2016-12-03 06:32:00,16.3,11.5,30.23,ENE,66,1.0,1.0,81,0.00,,,0.00,meteohub,2016-12-03 13:32:00,
2016-12-03 06:37:00,16.3,11.5,30.22,ENE,66,0.0,1.0,81,0.00,,,0.00,meteohub,2016-12-03 13:37:00,
2016-12-03 06:42:00,16.3,11.5,30.22,ENE,66,0.0,1.0,81,0.00,,,0.00,meteohub,2016-12-03 13:42:00,
2016-12-03 06:47:00,16.2,11.3,30.23,ENE,66,0.0,1.0,81,0.00,,,0.00,meteohub,2016-12-03 13:47:00,
2016-12-03 06:52:00,16.2,11.3,30.22,ENE,66,0.0,0.0,81,0.00,,,0.00,meteohub,2016-12-03 13:52:00,
2016-12-03 06:57:00,16.2,11.7,30.22,ENE,66,0.0,0.0,82,0.00,,,0.00,meteohub,2016-12-03 13:57:00,
2016-12-03 07:02:00,16.2,11.7,30.22,ENE,66,0.0,1.0,82,0.00,,,0.00,meteohub,2016-12-03 14:02:00,
2016-12-03 07:07:00,16.2,11.7,30.22,ENE,66,0.0,1.0,82,0.00,,,0.00,meteohub,2016-12-03 14:07:00,
2016-12-03 07:12:00,16.3,11.8,30.22,ENE,66,0.0,1.0,82,0.00,,,0.00,meteohub,2016-12-03 14:12:00,
2016-12-03 07:17:00,16.3,11.8,30.22,ENE,66,0.0,1.0,82,0.00,,,0.00,meteohub,2016-12-03 14:17:00,
2016-12-03 07:22:00,16.5,12.0,30.22,ENE,66,0.0,0.0,82,0.00,,,0.00,meteohub,2016-12-03 14:22:00,
2016-12-03 07:27:00,16.7,12.2,30.22,ENE,66,0.0,1.0,82,0.00,,,0.00,meteohub,2016-12-03 14:27:00,
2016-12-03 07:32:00,16.9,12.4,30.22,ENE,66,0.0,1.0,82,0.00,,,0.00,meteohub,2016-12-03 14:32:00,
2016-12-03 07:37:00,16.9,12.6,30.22,ENE,66,0.0,1.0,83,0.00,,,0.00,meteohub,2016-12-03 14:37:00,
2016-12-03 07:42:00,17.2,12.9,30.22,ENE,66,0.0,0.0,83,0.00,,,0.00,meteohub,2016-12-03 14:42:00,
2016-12-03 07:47:00,17.6,13.3,30.22,ENE,66,0.0,1.0,83,0.00,,,0.00,meteohub,2016-12-03 14:47:00,
2016-12-03 07:52:00,18.0,13.5,30.22,ENE,66,0.0,1.0,82,0.00,,,0.00,meteohub,2016-12-03 14:52:00,
2016-12-03 07:57:00,18.1,13.8,30.22,ENE,66,0.0,1.0,83,0.00,,,0.00,meteohub,2016-12-03 14:57:00,
2016-12-03 08:07:00,19.0,14.5,30.22,ENE,66,0.0,0.0,82,0.00,,,0.00,meteohub,2016-12-03 15:07:00,
2016-12-03 08:12:00,19.8,15.1,30.22,ENE,66,0.0,2.0,82,0.00,,,0.00,meteohub,2016-12-03 15:12:00,
2016-12-03 08:17:00,20.3,15.4,30.22,ENE,66,0.0,2.0,81,0.00,,,0.00,meteohub,2016-12-03 15:17:00,
2016-12-03 08:22:00,20.7,15.4,30.22,ENE,66,0.0,2.0,80,0.00,,,0.00,meteohub,2016-12-03 15:22:00,
2016-12-03 08:27:00,21.4,16.2,30.22,ENE,66,0.0,1.0,80,0.00,,,0.00,meteohub,2016-12-03 15:27:00,
2016-12-03 08:32:00,22.1,16.3,30.22,ENE,66,0.0,1.0,78,0.00,,,0.00,meteohub,2016-12-03 15:32:00,
2016-12-03 08:37:00,23.0,16.5,30.22,ENE,66,0.0,1.0,76,0.00,,,0.00,meteohub,2016-12-03 15:37:00,
2016-12-03 08:42:00,23.9,17.1,30.22,ENE,66,0.0,1.0,75,0.00,,,0.00,meteohub,2016-12-03 15:42:00,
2016-12-03 08:47:00,24.8,17.4,30.22,ENE,66,0.0,2.0,73,0.00,,,0.00,meteohub,2016-12-03 15:47:00,
2016-12-03 08:52:00,25.3,16.9,30.22,ENE,66,0.0,2.0,70,0.00,,,0.00,meteohub,2016-12-03 15:52:00,
2016-12-03 08:57:00,26.2,17.4,30.22,ENE,66,0.0,2.0,69,0.00,,,0.00,meteohub,2016-12-03 15:57:00,
2016-12-03 09:02:00,26.8,17.2,30.22,ENE,66,0.0,1.0,67,0.00,,,0.00,meteohub,2016-12-03 16:02:00,
2016-12-03 09:07:00,27.3,17.4,30.22,ENE,66,0.0,1.0,66,0.00,,,0.00,meteohub,2016-12-03 16:07:00,
2016-12-03 09:12:00,27.9,18.0,30.22,ENE,66,0.0,3.0,66,0.00,,,0.00,meteohub,2016-12-03 16:12:00,
2016-12-03 09:17:00,28.4,18.1,30.22,ENE,66,1.0,3.0,65,0.00,,,0.00,meteohub,2016-12-03 16:17:00,
2016-12-03 09:22:00,28.8,18.5,30.22,ENE,66,1.0,3.0,65,0.00,,,0.00,meteohub,2016-12-03 16:22:00,
2016-12-03 09:27:00,28.9,18.3,30.22,ENE,66,0.0,2.0,64,0.00,,,0.00,meteohub,2016-12-03 16:27:00,
2016-12-03 09:32:00,29.3,18.7,30.22,ENE,66,1.0,2.0,64,0.00,,,0.00,meteohub,2016-12-03 16:32:00,
2016-12-03 09:37:00,29.7,18.7,30.22,ENE,66,1.0,2.0,63,0.00,,,0.00,meteohub,2016-12-03 16:37:00,
2016-12-03 09:42:00,29.8,18.9,30.21,ENE,66,0.0,2.0,63,0.00,,,0.00,meteohub,2016-12-03 16:42:00,
2016-12-03 09:47:00,30.0,18.5,30.21,ENE,66,0.0,3.0,62,0.00,,,0.00,meteohub,2016-12-03 16:47:00,
2016-12-03 09:52:00,30.4,18.5,30.21,ENE,66,0.0,3.0,61,0.00,,,0.00,meteohub,2016-12-03 16:52:00,
2016-12-03 09:57:00,30.7,18.9,30.21,ENE,66,3.0,3.0,61,0.00,,,0.00,meteohub,2016-12-03 16:57:00,
2016-12-03 10:02:00,30.9,19.0,30.21,ENE,66,1.0,3.0,61,0.00,,,0.00,meteohub,2016-12-03 17:02:00,
2016-12-03 10:07:00,31.3,19.0,30.21,ENE,66,0.0,3.0,60,0.00,,,0.00,meteohub,2016-12-03 17:07:00,
2016-12-03 10:12:00,31.5,18.3,30.21,ENE,66,2.0,3.0,58,0.00,,,0.00,meteohub,2016-12-03 17:12:00,
2016-12-03 10:17:00,31.8,18.7,30.21,ENE,66,0.0,3.0,58,0.00,,,0.00,meteohub,2016-12-03 17:17:00,
2016-12-03 10:22:00,32.4,18.9,30.21,ENE,66,0.0,3.0,57,0.00,,,0.00,meteohub,2016-12-03 17:22:00,
2016-12-03 10:27:00,33.1,19.0,30.20,ENE,66,0.0,3.0,56,0.00,,,0.00,meteohub,2016-12-03 17:27:00,
2016-12-03 10:32:00,33.6,18.7,30.20,ENE,66,0.0,4.0,54,0.00,,,0.00,meteohub,2016-12-03 17:32:00,
2016-12-03 10:37:00,34.2,19.2,30.20,ENE,66,2.0,4.0,54,0.00,,,0.00,meteohub,2016-12-03 17:37:00,
2016-12-03 10:42:00,34.5,19.2,30.21,ENE,66,0.0,4.0,53,0.00,,,0.00,meteohub,2016-12-03 17:42:00,
2016-12-03 10:47:00,34.5,18.7,30.20,ENE,66,0.0,3.0,52,0.00,,,0.00,meteohub,2016-12-03 17:47:00,
2016-12-03 10:52:00,34.7,18.5,30.20,ENE,66,1.0,3.0,51,0.00,,,0.00,meteohub,2016-12-03 17:52:00,
2016-12-03 10:57:00,34.7,18.5,30.20,ENE,66,1.0,3.0,51,0.00,,,0.00,meteohub,2016-12-03 17:57:00,
2016-12-03 11:02:00,34.9,18.1,30.21,ENE,66,0.0,3.0,50,0.00,,,0.00,meteohub,2016-12-03 18:02:00,
2016-12-03 11:07:00,35.1,18.3,30.20,ENE,66,0.0,3.0,50,0.00,,,0.00,meteohub,2016-12-03 18:07:00,
2016-12-03 11:12:00,35.4,17.6,30.20,ENE,66,0.0,3.0,48,0.00,,,0.00,meteohub,2016-12-03 18:12:00,
2016-12-03 11:17:00,35.6,17.4,30.20,ENE,66,0.0,1.0,47,0.00,,,0.00,meteohub,2016-12-03 18:17:00,
2016-12-03 11:22:00,35.8,17.1,30.20,ENE,66,0.0,1.0,46,0.00,,,0.00,meteohub,2016-12-03 18:22:00,
2016-12-03 11:27:00,36.0,16.2,30.19,ENE,66,0.0,1.0,44,0.00,,,0.00,meteohub,2016-12-03 18:27:00,
2016-12-03 11:32:00,36.0,15.6,30.19,ENE,66,0.0,0.0,43,0.00,,,0.00,meteohub,2016-12-03 18:32:00,
2016-12-03 11:37:00,36.0,14.5,30.19,ENE,66,0.0,0.0,41,0.00,,,0.00,meteohub,2016-12-03 18:37:00,
2016-12-03 11:42:00,36.1,16.3,30.19,ENE,66,0.0,2.0,44,0.00,,,0.00,meteohub,2016-12-03 18:42:00,
2016-12-03 11:47:00,36.1,16.3,30.19,ENE,66,0.0,2.0,44,0.00,,,0.00,meteohub,2016-12-03 18:47:00,
2016-12-03 11:52:00,36.0,16.2,30.19,ENE,66,0.0,2.0,44,0.00,,,0.00,meteohub,2016-12-03 18:52:00,
2016-12-03 11:57:00,36.1,15.8,30.19,ENE,66,0.0,1.0,43,0.00,,,0.00,meteohub,2016-12-03 18:57:00,
2016-12-03 12:02:00,36.1,15.8,30.19,ENE,66,0.0,1.0,43,0.00,,,0.00,meteohub,2016-12-03 19:02:00,